Tenacity Venture — VRPX2 — position and weather

sailwx.info

Track history (hours):
 
Tides and Currents Weather Stations Pressure Air Temp Water Temp Dewpoint Dewpoint Depression Visibility Wind Speed Wind Dir Waves Ship Positions

Tenacity Venture

Last reported at 2018-Jan-20 23:42 UTC. Time now 2018-Jan-21 00:53 UTC.
Position N 37°33' W 022°07'.

Length 247 m; draft 12.6 m.

Type: Tanker. MMSI: 477010100.

Date/timePositionNaut miles runAvg speedWind from/ knotsBaromVisibWave heightAir tempDewpointWater temp
2018-Jan-20 23:42N 37°33' W 022°07'312.2
2018-Jan-20 23:29N 37°35' W 022°05'  
2018-Jan-11 13:19N 59°04' W 000°04'412.7
2018-Jan-11 12:59N 59°08' W 000°05'612.8
2018-Jan-11 12:30N 59°14' W 000°05'612.8
2018-Jan-11 12:00N 59°21' W 000°05'612.9
2018-Jan-11 11:30N 59°27' W 000°05'612.9
2018-Jan-11 11:00N 59°34' W 000°05'712.9
2018-Jan-11 10:29N 59°40' W 000°04'  
Track history (hours):
 
Tides and Currents Weather Stations Pressure Air Temp Water Temp Dewpoint Dewpoint Depression Visibility Wind Speed Wind Dir Waves Ship Positions

Tenacity Venture

Last reported at 2018-Jan-20 23:42 UTC. Time now 2018-Jan-21 00:53 UTC.
Position N 37°33' W 022°07'.

Length 247 m; draft 12.6 m.

Type: Tanker. MMSI: 477010100.

Date/timePositionNaut miles runAvg speedWind from/ knotsBaromVisibWave heightAir tempDewpointWater temp
2018-Jan-20 23:42N 37°33' W 022°07'312.2
2018-Jan-20 23:29N 37°35' W 022°05'  
2018-Jan-11 13:19N 59°04' W 000°04'412.7
2018-Jan-11 12:59N 59°08' W 000°05'612.8
2018-Jan-11 12:30N 59°14' W 000°05'612.8
2018-Jan-11 12:00N 59°21' W 000°05'612.9
2018-Jan-11 11:30N 59°27' W 000°05'612.9
2018-Jan-11 11:00N 59°34' W 000°05'712.9
2018-Jan-11 10:29N 59°40' W 000°04'  

Dump ship's entire track history